sensor_id;sensor_type;location;lat;lon;timestamp;pressure;altitude;pressure_sealevel;temperature;humidity
71795;BME280;59641;45.188;5.712;2022-12-10T00:01:12;97937.81;;;8.64;66.45
71795;BME280;59641;45.188;5.712;2022-12-10T00:03:38;97935.38;;;8.62;66.62
71795;BME280;59641;45.188;5.712;2022-12-10T00:06:06;97944.47;;;8.61;66.74
71795;BME280;59641;45.188;5.712;2022-12-10T00:08:33;97940.97;;;8.61;66.60
71795;BME280;59641;45.188;5.712;2022-12-10T00:10:59;97945.50;;;8.60;66.31
71795;BME280;59641;45.188;5.712;2022-12-10T00:13:24;97947.38;;;8.60;66.42
71795;BME280;59641;45.188;5.712;2022-12-10T00:15:49;97938.78;;;8.58;66.41
71795;BME280;59641;45.188;5.712;2022-12-10T00:18:15;97942.75;;;8.55;66.20
71795;BME280;59641;45.188;5.712;2022-12-10T00:20:40;97935.22;;;8.52;66.14
71795;BME280;59641;45.188;5.712;2022-12-10T00:23:06;97933.00;;;8.49;66.35
71795;BME280;59641;45.188;5.712;2022-12-10T00:25:31;97942.31;;;8.46;65.96
71795;BME280;59641;45.188;5.712;2022-12-10T00:27:57;97943.88;;;8.42;66.05
71795;BME280;59641;45.188;5.712;2022-12-10T00:30:22;97935.47;;;8.39;65.74
71795;BME280;59641;45.188;5.712;2022-12-10T00:32:48;97935.38;;;8.33;65.78
71795;BME280;59641;45.188;5.712;2022-12-10T00:35:13;97938.28;;;8.32;65.32
71795;BME280;59641;45.188;5.712;2022-12-10T00:37:39;97934.25;;;8.29;65.68
71795;BME280;59641;45.188;5.712;2022-12-10T00:40:04;97933.69;;;8.27;65.50
71795;BME280;59641;45.188;5.712;2022-12-10T00:42:30;97929.16;;;8.28;65.77
71795;BME280;59641;45.188;5.712;2022-12-10T00:44:58;97929.16;;;8.28;65.66
71795;BME280;59641;45.188;5.712;2022-12-10T00:47:23;97929.16;;;8.28;65.86
71795;BME280;59641;45.188;5.712;2022-12-10T00:49:49;97930.75;;;8.29;65.78
71795;BME280;59641;45.188;5.712;2022-12-10T00:52:14;97921.94;;;8.28;65.60
71795;BME280;59641;45.188;5.712;2022-12-10T00:54:39;97924.38;;;8.30;65.68
71795;BME280;59641;45.188;5.712;2022-12-10T00:57:06;97927.84;;;8.30;65.47
71795;BME280;59641;45.188;5.712;2022-12-10T00:59:31;97926.22;;;8.29;65.13
71795;BME280;59641;45.188;5.712;2022-12-10T01:01:57;97926.22;;;8.29;65.39
71795;BME280;59641;45.188;5.712;2022-12-10T01:04:22;97931.81;;;8.28;64.85
71795;BME280;59641;45.188;5.712;2022-12-10T01:06:50;97934.72;;;8.26;65.05
71795;BME280;59641;45.188;5.712;2022-12-10T01:09:24;97931.25;;;8.26;65.00
71795;BME280;59641;45.188;5.712;2022-12-10T01:11:51;97932.28;;;8.25;65.17
71795;BME280;59641;45.188;5.712;2022-12-10T01:14:23;97925.09;;;8.25;65.01
71795;BME280;59641;45.188;5.712;2022-12-10T01:16:51;97926.13;;;8.24;64.81
71795;BME280;59641;45.188;5.712;2022-12-10T01:19:18;97929.88;;;8.23;64.70
71795;BME280;59641;45.188;5.712;2022-12-10T01:21:43;97931.97;;;8.21;64.69
71795;BME280;59641;45.188;5.712;2022-12-10T01:24:09;97931.63;;;8.18;64.72
71795;BME280;59641;45.188;5.712;2022-12-10T01:26:35;97931.88;;;8.16;64.75
71795;BME280;59641;45.188;5.712;2022-12-10T01:29:02;97932.09;;;8.15;64.69
71795;BME280;59641;45.188;5.712;2022-12-10T01:31:30;97935.84;;;8.14;65.09
71795;BME280;59641;45.188;5.712;2022-12-10T01:33:57;97933.38;;;8.12;64.61
71795;BME280;59641;45.188;5.712;2022-12-10T01:36:29;97939.78;;;8.11;64.82
71795;BME280;59641;45.188;5.712;2022-12-10T01:38:54;97935.75;;;8.08;64.46
71795;BME280;59641;45.188;5.712;2022-12-10T01:41:26;97940.50;;;8.06;64.72
71795;BME280;59641;45.188;5.712;2022-12-10T01:46:17;97939.13;;;8.04;64.62
71795;BME280;59641;45.188;5.712;2022-12-10T01:48:43;97935.88;;;8.02;64.82
71795;BME280;59641;45.188;5.712;2022-12-10T01:51:10;97938.31;;;8.03;65.13
71795;BME280;59641;45.188;5.712;2022-12-10T01:53:36;97936.19;;;8.05;65.14
71795;BME280;59641;45.188;5.712;2022-12-10T01:56:01;97937.84;;;8.06;64.98
71795;BME280;59641;45.188;5.712;2022-12-10T01:58:26;97937.84;;;8.06;65.07
71795;BME280;59641;45.188;5.712;2022-12-10T02:01:13;97931.91;;;8.04;65.11
71795;BME280;59641;45.188;5.712;2022-12-10T02:06:16;97939.34;;;8.02;65.23
71795;BME280;59641;45.188;5.712;2022-12-10T02:11:45;97954.81;;;8.00;65.25
71795;BME280;59641;45.188;5.712;2022-12-10T02:14:53;97948.09;;;7.98;65.27
71795;BME280;59641;45.188;5.712;2022-12-10T02:17:26;97950.75;;;7.98;65.16
71795;BME280;59641;45.188;5.712;2022-12-10T02:22:32;97953.09;;;7.94;65.19
71795;BME280;59641;45.188;5.712;2022-12-10T02:25:00;97954.94;;;7.94;65.04
71795;BME280;59641;45.188;5.712;2022-12-10T02:27:52;97965.88;;;7.92;64.97
71795;BME280;59641;45.188;5.712;2022-12-10T02:30:20;97963.69;;;7.89;64.92
71795;BME280;59641;45.188;5.712;2022-12-10T02:32:47;97964.50;;;7.89;64.97
71795;BME280;59641;45.188;5.712;2022-12-10T02:35:20;97958.56;;;7.87;64.87
71795;BME280;59641;45.188;5.712;2022-12-10T02:37:57;97958.00;;;7.85;64.77
71795;BME280;59641;45.188;5.712;2022-12-10T02:40:31;97967.78;;;7.80;65.02
71795;BME280;59641;45.188;5.712;2022-12-10T02:42:58;97970.09;;;7.76;64.69
71795;BME280;59641;45.188;5.712;2022-12-10T02:45:26;97962.56;;;7.73;65.15
71795;BME280;59641;45.188;5.712;2022-12-10T02:47:55;97960.69;;;7.74;65.21
71795;BME280;59641;45.188;5.712;2022-12-10T02:50:22;97959.66;;;7.75;65.19
71795;BME280;59641;45.188;5.712;2022-12-10T02:52:48;97960.69;;;7.74;65.10
71795;BME280;59641;45.188;5.712;2022-12-10T02:55:13;97949.69;;;7.70;65.15
71795;BME280;59641;45.188;5.712;2022-12-10T03:00:27;97951.19;;;7.66;65.06
71795;BME280;59641;45.188;5.712;2022-12-10T03:05:43;97951.91;;;7.61;65.40
71795;BME280;59641;45.188;5.712;2022-12-10T03:16:35;97933.94;;;7.45;65.60
71795;BME280;59641;45.188;5.712;2022-12-10T03:19:05;97931.38;;;7.38;65.86
71795;BME280;59641;45.188;5.712;2022-12-10T03:21:33;97930.00;;;7.36;66.06
71795;BME280;59641;45.188;5.712;2022-12-10T03:24:01;97932.91;;;7.34;66.04
71795;BME280;59641;45.188;5.712;2022-12-10T03:26:27;97938.47;;;7.33;66.14
71795;BME280;59641;45.188;5.712;2022-12-10T03:28:57;97935.69;;;7.28;66.07
71795;BME280;59641;45.188;5.712;2022-12-10T03:31:26;97934.63;;;7.29;65.77
71795;BME280;59641;45.188;5.712;2022-12-10T03:33:52;97933.72;;;7.23;66.35
71795;BME280;59641;45.188;5.712;2022-12-10T03:36:18;97932.91;;;7.22;66.00
71795;BME280;59641;45.188;5.712;2022-12-10T03:38:44;97937.44;;;7.22;66.21
71795;BME280;59641;45.188;5.712;2022-12-10T03:41:10;97937.44;;;7.22;66.14
71795;BME280;59641;45.188;5.712;2022-12-10T03:43:35;97940.13;;;7.22;66.29
71795;BME280;59641;45.188;5.712;2022-12-10T03:46:01;97938.03;;;7.24;66.15
71795;BME280;59641;45.188;5.712;2022-12-10T03:48:26;97935.13;;;7.25;66.09
71795;BME280;59641;45.188;5.712;2022-12-10T03:50:51;97939.06;;;7.23;65.94
71795;BME280;59641;45.188;5.712;2022-12-10T03:53:17;97939.53;;;7.20;66.09
71795;BME280;59641;45.188;5.712;2022-12-10T03:55:42;97939.53;;;7.20;65.87
71795;BME280;59641;45.188;5.712;2022-12-10T03:58:08;97946.72;;;7.19;66.20
71795;BME280;59641;45.188;5.712;2022-12-10T04:00:33;97947.19;;;7.16;65.90
71795;BME280;59641;45.188;5.712;2022-12-10T04:02:58;97952.66;;;7.10;66.14
71795;BME280;59641;45.188;5.712;2022-12-10T04:05:23;97966.22;;;7.08;66.03
71795;BME280;59641;45.188;5.712;2022-12-10T04:07:49;97964.00;;;7.05;65.89
71795;BME280;59641;45.188;5.712;2022-12-10T04:10:14;97972.91;;;6.99;66.15
71795;BME280;59641;45.188;5.712;2022-12-10T04:12:40;97979.53;;;6.96;66.05
71795;BME280;59641;45.188;5.712;2022-12-10T04:15:06;97981.84;;;6.93;66.17
71795;BME280;59641;45.188;5.712;2022-12-10T04:17:50;97984.38;;;6.88;66.24
71795;BME280;59641;45.188;5.712;2022-12-10T04:20:15;97985.66;;;6.85;66.09
71795;BME280;59641;45.188;5.712;2022-12-10T04:22:59;97985.31;;;6.81;66.13
71795;BME280;59641;45.188;5.712;2022-12-10T04:25:43;97984.50;;;6.81;66.35
71795;BME280;59641;45.188;5.712;2022-12-10T04:28:27;97986.34;;;6.80;65.97
71795;BME280;59641;45.188;5.712;2022-12-10T04:30:52;97991.53;;;6.75;66.11
71795;BME280;59641;45.188;5.712;2022-12-10T04:33:18;97987.94;;;6.70;66.19
71795;BME280;59641;45.188;5.712;2022-12-10T04:35:43;97989.44;;;6.66;66.09
71795;BME280;59641;45.188;5.712;2022-12-10T04:38:08;97989.31;;;6.60;66.17
71795;BME280;59641;45.188;5.712;2022-12-10T04:40:34;97998.00;;;6.56;66.37
71795;BME280;59641;45.188;5.712;2022-12-10T04:42:59;97998.22;;;6.54;66.35
71795;BME280;59641;45.188;5.712;2022-12-10T04:45:24;98005.06;;;6.50;66.28
71795;BME280;59641;45.188;5.712;2022-12-10T04:47:49;98007.94;;;6.49;66.30
71795;BME280;59641;45.188;5.712;2022-12-10T04:50:15;98016.00;;;6.42;66.07
71795;BME280;59641;45.188;5.712;2022-12-10T04:52:40;98007.44;;;6.40;66.38
71795;BME280;59641;45.188;5.712;2022-12-10T04:55:06;98014.06;;;6.37;66.25
71795;BME280;59641;45.188;5.712;2022-12-10T04:57:31;98022.94;;;6.31;66.24
71795;BME280;59641;45.188;5.712;2022-12-10T04:59:57;98015.75;;;6.32;66.07
71795;BME280;59641;45.188;5.712;2022-12-10T05:02:22;98011.22;;;6.32;66.27
71795;BME280;59641;45.188;5.712;2022-12-10T05:04:48;98017.59;;;6.31;66.20
71795;BME280;59641;45.188;5.712;2022-12-10T05:07:14;98027.44;;;6.31;66.55
71795;BME280;59641;45.188;5.712;2022-12-10T05:09:39;98029.06;;;6.32;66.45
71795;BME280;59641;45.188;5.712;2022-12-10T05:12:05;98028.59;;;6.35;66.06
71795;BME280;59641;45.188;5.712;2022-12-10T05:14:30;98031.38;;;6.28;66.00
71795;BME280;59641;45.188;5.712;2022-12-10T05:16:56;98049.88;;;6.23;65.98
71795;BME280;59641;45.188;5.712;2022-12-10T05:19:21;98049.06;;;6.23;66.01
71795;BME280;59641;45.188;5.712;2022-12-10T05:21:48;98059.13;;;6.21;65.83
71795;BME280;59641;45.188;5.712;2022-12-10T05:24:32;98055.63;;;6.20;65.81
71795;BME280;59641;45.188;5.712;2022-12-10T05:26:58;98059.94;;;6.21;65.82
71795;BME280;59641;45.188;5.712;2022-12-10T05:29:23;98066.53;;;6.18;65.84
71795;BME280;59641;45.188;5.712;2022-12-10T05:31:49;98066.53;;;6.18;65.74
71795;BME280;59641;45.188;5.712;2022-12-10T05:34:14;98061.06;;;6.13;65.85
71795;BME280;59641;45.188;5.712;2022-12-10T05:36:40;98056.56;;;6.14;65.77
71795;BME280;59641;45.188;5.712;2022-12-10T05:39:06;98057.22;;;6.09;65.95
71795;BME280;59641;45.188;5.712;2022-12-10T05:41:35;98061.34;;;6.05;65.98
71795;BME280;59641;45.188;5.712;2022-12-10T05:44:00;98076.97;;;6.02;65.71
71795;BME280;59641;45.188;5.712;2022-12-10T05:46:28;98068.84;;;5.96;65.67
71795;BME280;59641;45.188;5.712;2022-12-10T05:48:55;98075.41;;;5.94;65.92
71795;BME280;59641;45.188;5.712;2022-12-10T05:51:23;98070.06;;;5.94;66.02
71795;BME280;59641;45.188;5.712;2022-12-10T05:53:49;98084.41;;;5.93;65.97
71795;BME280;59641;45.188;5.712;2022-12-10T05:56:17;98075.59;;;5.92;65.91
71795;BME280;59641;45.188;5.712;2022-12-10T05:58:47;98078.28;;;5.92;65.74
71795;BME280;59641;45.188;5.712;2022-12-10T06:01:16;98066.22;;;5.90;66.11
71795;BME280;59641;45.188;5.712;2022-12-10T06:03:42;98076.47;;;5.86;66.15
71795;BME280;59641;45.188;5.712;2022-12-10T06:06:08;98083.00;;;5.90;65.89
71795;BME280;59641;45.188;5.712;2022-12-10T06:08:34;98086.72;;;5.89;66.01
71795;BME280;59641;45.188;5.712;2022-12-10T06:11:02;98093.50;;;5.85;66.22
71795;BME280;59641;45.188;5.712;2022-12-10T06:13:27;98093.50;;;5.85;66.25
71795;BME280;59641;45.188;5.712;2022-12-10T06:15:52;98083.50;;;5.81;65.92
71795;BME280;59641;45.188;5.712;2022-12-10T06:18:18;98095.63;;;5.76;66.33
71795;BME280;59641;45.188;5.712;2022-12-10T06:20:43;98091.69;;;5.79;65.98
71795;BME280;59641;45.188;5.712;2022-12-10T06:23:08;98095.16;;;5.80;65.96
71795;BME280;59641;45.188;5.712;2022-12-10T06:25:37;98097.81;;;5.80;66.06
71795;BME280;59641;45.188;5.712;2022-12-10T06:28:03;98112.78;;;5.81;66.00
71795;BME280;59641;45.188;5.712;2022-12-10T06:30:29;98114.03;;;5.78;65.73
71795;BME280;59641;45.188;5.712;2022-12-10T06:32:54;98112.19;;;5.79;65.86
71795;BME280;59641;45.188;5.712;2022-12-10T06:35:20;98117.50;;;5.79;66.08
71795;BME280;59641;45.188;5.712;2022-12-10T06:37:45;98109.97;;;5.75;65.99
71795;BME280;59641;45.188;5.712;2022-12-10T06:40:11;98106.56;;;5.68;65.95
71795;BME280;59641;45.188;5.712;2022-12-10T06:42:36;98115.13;;;5.70;65.69
71795;BME280;59641;45.188;5.712;2022-12-10T06:45:02;98123.94;;;5.71;65.82
71795;BME280;59641;45.188;5.712;2022-12-10T06:47:27;98126.59;;;5.71;65.74
71795;BME280;59641;45.188;5.712;2022-12-10T06:49:53;98123.53;;;5.67;65.85
71795;BME280;59641;45.188;5.712;2022-12-10T06:52:19;98131.31;;;5.69;65.70
71795;BME280;59641;45.188;5.712;2022-12-10T06:54:44;98125.41;;;5.67;65.96
71795;BME280;59641;45.188;5.712;2022-12-10T06:57:10;98131.16;;;5.64;65.68
71795;BME280;59641;45.188;5.712;2022-12-10T06:59:35;98124.00;;;5.64;65.79
71795;BME280;59641;45.188;5.712;2022-12-10T07:02:00;98133.81;;;5.64;65.73
71795;BME280;59641;45.188;5.712;2022-12-10T07:04:26;98136.28;;;5.65;65.78
71795;BME280;59641;45.188;5.712;2022-12-10T07:06:52;98131.75;;;5.66;65.63
71795;BME280;59641;45.188;5.712;2022-12-10T07:09:17;98131.53;;;5.67;65.77
71795;BME280;59641;45.188;5.712;2022-12-10T07:11:43;98145.88;;;5.66;65.85
71795;BME280;59641;45.188;5.712;2022-12-10T07:14:14;98141.59;;;5.65;65.46
71795;BME280;59641;45.188;5.712;2022-12-10T07:16:40;98127.47;;;5.65;65.71
71795;BME280;59641;45.188;5.712;2022-12-10T07:19:06;98135.22;;;5.66;65.97
71795;BME280;59641;45.188;5.712;2022-12-10T07:21:34;98146.09;;;5.65;65.77
71795;BME280;59641;45.188;5.712;2022-12-10T07:24:06;98156.53;;;5.66;65.48
71795;BME280;59641;45.188;5.712;2022-12-10T07:26:35;98151.84;;;5.62;65.65
71795;BME280;59641;45.188;5.712;2022-12-10T07:29:02;98157.19;;;5.62;65.51
71795;BME280;59641;45.188;5.712;2022-12-10T07:31:28;98151.25;;;5.60;65.66
71795;BME280;59641;45.188;5.712;2022-12-10T07:33:54;98147.19;;;5.57;65.87
71795;BME280;59641;45.188;5.712;2022-12-10T07:36:22;98167.66;;;5.57;65.81
71795;BME280;59641;45.188;5.712;2022-12-10T07:38:49;98157.81;;;5.57;65.96
71795;BME280;59641;45.188;5.712;2022-12-10T07:41:14;98175.66;;;5.57;65.73
71795;BME280;59641;45.188;5.712;2022-12-10T07:43:42;98151.09;;;5.54;65.68
71795;BME280;59641;45.188;5.712;2022-12-10T07:48:38;98182.69;;;5.44;65.43
71795;BME280;59641;45.188;5.712;2022-12-10T07:51:04;98181.03;;;5.43;65.60
71795;BME280;59641;45.188;5.712;2022-12-10T07:53:30;98190.06;;;5.42;65.55
71795;BME280;59641;45.188;5.712;2022-12-10T07:55:56;98180.69;;;5.40;65.74
71795;BME280;59641;45.188;5.712;2022-12-10T07:58:21;98170.63;;;5.42;65.50
71795;BME280;59641;45.188;5.712;2022-12-10T08:00:46;98187.63;;;5.41;65.61
71795;BME280;59641;45.188;5.712;2022-12-10T08:03:12;98184.59;;;5.37;65.40
71795;BME280;59641;45.188;5.712;2022-12-10T08:05:37;98180.28;;;5.36;65.50
71795;BME280;59641;45.188;5.712;2022-12-10T08:08:03;98193.00;;;5.34;65.54
71795;BME280;59641;45.188;5.712;2022-12-10T08:10:29;98197.72;;;5.32;65.75
71795;BME280;59641;45.188;5.712;2022-12-10T08:12:54;98194.81;;;5.33;65.80
71795;BME280;59641;45.188;5.712;2022-12-10T08:15:19;98193.16;;;5.39;65.62
71795;BME280;59641;45.188;5.712;2022-12-10T08:17:45;98184.16;;;5.40;65.30
71795;BME280;59641;45.188;5.712;2022-12-10T08:20:10;98203.56;;;5.41;65.36
71795;BME280;59641;45.188;5.712;2022-12-10T08:22:36;98205.44;;;5.40;65.20
71795;BME280;59641;45.188;5.712;2022-12-10T08:25:02;98201.97;;;5.40;65.29
71795;BME280;59641;45.188;5.712;2022-12-10T08:27:27;98210.75;;;5.40;65.11
71795;BME280;59641;45.188;5.712;2022-12-10T08:29:52;98202.56;;;5.42;65.31
71795;BME280;59641;45.188;5.712;2022-12-10T08:32:18;98219.53;;;5.41;65.04
71795;BME280;59641;45.188;5.712;2022-12-10T08:34:44;98222.63;;;5.38;65.22
71795;BME280;59641;45.188;5.712;2022-12-10T08:37:09;98223.47;;;5.31;65.17
71795;BME280;59641;45.188;5.712;2022-12-10T08:39:35;98232.69;;;5.29;65.34
71795;BME280;59641;45.188;5.712;2022-12-10T08:42:00;98223.53;;;5.25;65.33
71795;BME280;59641;45.188;5.712;2022-12-10T08:44:25;98233.38;;;5.24;65.38
71795;BME280;59641;45.188;5.712;2022-12-10T08:46:51;98238.88;;;5.23;65.32
71795;BME280;59641;45.188;5.712;2022-12-10T08:49:16;98234.22;;;5.18;65.61
71795;BME280;59641;45.188;5.712;2022-12-10T08:51:42;98248.31;;;5.19;65.18
71795;BME280;59641;45.188;5.712;2022-12-10T08:54:07;98247.72;;;5.17;65.38
71795;BME280;59641;45.188;5.712;2022-12-10T08:56:33;98257.53;;;5.16;65.37
71795;BME280;59641;45.188;5.712;2022-12-10T08:58:58;98254.88;;;5.16;65.45
71795;BME280;59641;45.188;5.712;2022-12-10T09:01:23;98261.84;;;5.17;65.49
71795;BME280;59641;45.188;5.712;2022-12-10T09:03:49;98276.31;;;5.21;65.27
71795;BME280;59641;45.188;5.712;2022-12-10T09:06:18;98276.13;;;5.23;65.21
71795;BME280;59641;45.188;5.712;2022-12-10T09:08:44;98277.53;;;5.25;65.30
71795;BME280;59641;45.188;5.712;2022-12-10T09:11:34;98273.84;;;5.26;65.37
71795;BME280;59641;45.188;5.712;2022-12-10T09:13:59;98274.28;;;5.23;64.87
71795;BME280;59641;45.188;5.712;2022-12-10T09:16:42;98289.81;;;5.26;65.14
71795;BME280;59641;45.188;5.712;2022-12-10T09:19:08;98279.16;;;5.26;65.33
71795;BME280;59641;45.188;5.712;2022-12-10T09:21:35;98264.25;;;5.25;65.02
71795;BME280;59641;45.188;5.712;2022-12-10T09:24:00;98287.19;;;5.20;65.13
71795;BME280;59641;45.188;5.712;2022-12-10T09:26:26;98296.59;;;5.22;65.17
71795;BME280;59641;45.188;5.712;2022-12-10T09:28:52;98277.97;;;5.22;65.31
71795;BME280;59641;45.188;5.712;2022-12-10T09:31:19;98289.22;;;5.24;65.05
71795;BME280;59641;45.188;5.712;2022-12-10T09:33:45;98299.03;;;5.24;65.17
71795;BME280;59641;45.188;5.712;2022-12-10T09:36:12;98301.47;;;5.25;64.90
71795;BME280;59641;45.188;5.712;2022-12-10T09:38:39;98302.53;;;5.24;65.08
71795;BME280;59641;45.188;5.712;2022-12-10T09:43:57;98302.91;;;5.28;65.10
71795;BME280;59641;45.188;5.712;2022-12-10T09:49:15;98302.91;;;5.28;65.12
71795;BME280;59641;45.188;5.712;2022-12-10T09:51:44;98296.16;;;5.25;64.87
71795;BME280;59641;45.188;5.712;2022-12-10T09:54:24;98300.25;;;5.28;65.04
71795;BME280;59641;45.188;5.712;2022-12-10T09:56:51;98298.63;;;5.27;64.78
71795;BME280;59641;45.188;5.712;2022-12-10T09:59:42;98303.94;;;5.27;64.90
71795;BME280;59641;45.188;5.712;2022-12-10T10:02:31;98306.16;;;5.30;64.74
71795;BME280;59641;45.188;5.712;2022-12-10T10:05:11;98311.69;;;5.28;64.70
71795;BME280;59641;45.188;5.712;2022-12-10T10:07:43;98310.06;;;5.27;64.26
71795;BME280;59641;45.188;5.712;2022-12-10T10:10:20;98295.13;;;5.26;64.57
71795;BME280;59641;45.188;5.712;2022-12-10T10:12:46;98312.72;;;5.27;64.59
71795;BME280;59641;45.188;5.712;2022-12-10T10:15:16;98314.34;;;5.28;64.38
71795;BME280;59641;45.188;5.712;2022-12-10T10:17:42;98313.75;;;5.26;64.49
71795;BME280;59641;45.188;5.712;2022-12-10T10:20:11;98314.63;;;5.13;64.21
71795;BME280;59641;45.188;5.712;2022-12-10T10:22:38;98315.81;;;5.24;64.54
71795;BME280;59641;45.188;5.712;2022-12-10T10:25:05;98320.28;;;5.24;64.55
71795;BME280;59641;45.188;5.712;2022-12-10T10:27:31;98327.03;;;5.26;64.46
71795;BME280;59641;45.188;5.712;2022-12-10T10:30:01;98318.25;;;5.26;64.56
71795;BME280;59641;45.188;5.712;2022-12-10T10:32:47;98323.38;;;5.27;64.23
71795;BME280;59641;45.188;5.712;2022-12-10T10:35:32;98319.91;;;5.27;64.34
71795;BME280;59641;45.188;5.712;2022-12-10T10:38:06;98326.03;;;5.27;64.08
71795;BME280;59641;45.188;5.712;2022-12-10T10:40:44;98332.97;;;5.28;63.93
71795;BME280;59641;45.188;5.712;2022-12-10T10:43:25;98320.09;;;5.32;63.93
71795;BME280;59641;45.188;5.712;2022-12-10T10:46:15;98319.66;;;5.35;63.69
71795;BME280;59641;45.188;5.712;2022-12-10T10:48:42;98332.53;;;5.38;63.81
71795;BME280;59641;45.188;5.712;2022-12-10T10:53:42;98310.84;;;5.41;63.30
71795;BME280;59641;45.188;5.712;2022-12-10T10:56:23;98324.72;;;5.43;63.50
71795;BME280;59641;45.188;5.712;2022-12-10T10:59:02;98329.63;;;5.46;63.43
71795;BME280;59641;45.188;5.712;2022-12-10T11:07:33;98335.34;;;5.50;62.76
71795;BME280;59641;45.188;5.712;2022-12-10T11:09:59;98346.78;;;5.50;62.40
71795;BME280;59641;45.188;5.712;2022-12-10T11:12:29;98342.31;;;5.51;62.65
71795;BME280;59641;45.188;5.712;2022-12-10T11:14:55;98353.97;;;5.50;61.97
71795;BME280;59641;45.188;5.712;2022-12-10T11:17:23;98345.78;;;5.51;62.55
71795;BME280;59641;45.188;5.712;2022-12-10T11:19:57;98350.50;;;5.49;62.63
71795;BME280;59641;45.188;5.712;2022-12-10T11:22:28;98355.81;;;5.49;62.19
71795;BME280;59641;45.188;5.712;2022-12-10T11:24:55;98356.41;;;5.51;62.59
71795;BME280;59641;45.188;5.712;2022-12-10T11:27:33;98354.75;;;5.57;62.67
71795;BME280;59641;45.188;5.712;2022-12-10T11:41:31;98366.00;;;5.59;62.49
71795;BME280;59641;45.188;5.712;2022-12-10T11:46:52;98368.84;;;5.64;62.33
71795;BME280;59641;45.188;5.712;2022-12-10T11:55:02;98373.69;;;5.74;62.42
71795;BME280;59641;45.188;5.712;2022-12-10T12:15:22;98388.59;;;5.82;61.66
71795;BME280;59641;45.188;5.712;2022-12-10T12:17:56;98386.78;;;5.82;61.36
71795;BME280;59641;45.188;5.712;2022-12-10T12:20:37;98379.97;;;5.86;61.52
71795;BME280;59641;45.188;5.712;2022-12-10T12:23:26;98386.34;;;5.85;61.45
71795;BME280;59641;45.188;5.712;2022-12-10T12:25:59;98388.78;;;5.87;61.34
71795;BME280;59641;45.188;5.712;2022-12-10T12:28:32;98386.72;;;5.89;61.15
71795;BME280;59641;45.188;5.712;2022-12-10T12:31:24;98401.06;;;5.88;60.29
71795;BME280;59641;45.188;5.712;2022-12-10T12:33:59;98395.94;;;5.86;60.99
71795;BME280;59641;45.188;5.712;2022-12-10T12:36:27;98390.66;;;5.80;60.41
71795;BME280;59641;45.188;5.712;2022-12-10T12:39:40;98395.41;;;5.78;60.39
71795;BME280;59641;45.188;5.712;2022-12-10T12:47:32;98396.66;;;5.75;60.66
71795;BME280;59641;45.188;5.712;2022-12-10T12:50:02;98398.69;;;5.73;60.97
71795;BME280;59641;45.188;5.712;2022-12-10T12:52:46;98394.81;;;5.69;61.19
71795;BME280;59641;45.188;5.712;2022-12-10T12:55:20;98395.66;;;5.63;60.39
71795;BME280;59641;45.188;5.712;2022-12-10T12:57:54;98395.28;;;5.59;60.82
71795;BME280;59641;45.188;5.712;2022-12-10T13:00:22;98407.78;;;5.59;61.32
71795;BME280;59641;45.188;5.712;2022-12-10T13:03:07;98404.28;;;5.58;61.48
71795;BME280;59641;45.188;5.712;2022-12-10T13:05:40;98408.78;;;5.58;61.30
71795;BME280;59641;45.188;5.712;2022-12-10T13:13:38;98419.25;;;5.46;60.83
71795;BME280;59641;45.188;5.712;2022-12-10T13:16:45;98424.19;;;5.42;61.21
71795;BME280;59641;45.188;5.712;2022-12-10T13:19:24;98433.84;;;5.37;60.52
71795;BME280;59641;45.188;5.712;2022-12-10T13:27:28;98438.53;;;5.34;61.19
71795;BME280;59641;45.188;5.712;2022-12-10T13:30:03;98437.50;;;5.36;60.95
71795;BME280;59641;45.188;5.712;2022-12-10T13:37:57;98438.75;;;5.26;59.72
71795;BME280;59641;45.188;5.712;2022-12-10T13:40:42;98454.94;;;5.25;60.35
71795;BME280;59641;45.188;5.712;2022-12-10T13:43:36;98450.44;;;5.19;60.09
71795;BME280;59641;45.188;5.712;2022-12-10T13:46:25;98454.53;;;5.15;60.11
71795;BME280;59641;45.188;5.712;2022-12-10T13:48:53;98455.75;;;5.12;59.25
71795;BME280;59641;45.188;5.712;2022-12-10T13:52:22;98452.91;;;5.13;60.25
71795;BME280;59641;45.188;5.712;2022-12-10T14:00:23;98446.78;;;5.13;59.68
71795;BME280;59641;45.188;5.712;2022-12-10T14:06:06;98456.56;;;5.19;59.77
71795;BME280;59641;45.188;5.712;2022-12-10T14:08:35;98463.13;;;5.17;59.23
71795;BME280;59641;45.188;5.712;2022-12-10T14:11:05;98464.16;;;5.16;59.25
71795;BME280;59641;45.188;5.712;2022-12-10T14:13:40;98468.44;;;5.17;59.79
71795;BME280;59641;45.188;5.712;2022-12-10T14:16:13;98478.06;;;5.18;60.02
71795;BME280;59641;45.188;5.712;2022-12-10T14:18:42;98480.50;;;5.19;60.23
71795;BME280;59641;45.188;5.712;2022-12-10T14:21:12;98476.22;;;5.18;59.24
71795;BME280;59641;45.188;5.712;2022-12-10T14:23:46;98476.03;;;5.20;59.82
71795;BME280;59641;45.188;5.712;2022-12-10T14:26:32;98479.28;;;5.22;59.47
71795;BME280;59641;45.188;5.712;2022-12-10T14:29:16;98497.88;;;5.22;59.48
71795;BME280;59641;45.188;5.712;2022-12-10T14:31:47;98492.56;;;5.22;59.27
71795;BME280;59641;45.188;5.712;2022-12-10T14:34:17;98499.75;;;5.21;59.05
71795;BME280;59641;45.188;5.712;2022-12-10T14:36:48;98490.75;;;5.22;59.68
71795;BME280;59641;45.188;5.712;2022-12-10T14:39:20;98489.72;;;5.23;59.76
71795;BME280;59641;45.188;5.712;2022-12-10T14:41:48;98502.00;;;5.24;59.69
71795;BME280;59641;45.188;5.712;2022-12-10T14:44:16;98502.00;;;5.24;59.80
71795;BME280;59641;45.188;5.712;2022-12-10T14:46:43;98502.19;;;5.23;59.85
71795;BME280;59641;45.188;5.712;2022-12-10T14:49:15;98521.00;;;5.21;59.53
71795;BME280;59641;45.188;5.712;2022-12-10T14:51:41;98511.19;;;5.22;59.64
71795;BME280;59641;45.188;5.712;2022-12-10T14:54:24;98507.31;;;5.24;60.09
71795;BME280;59641;45.188;5.712;2022-12-10T14:56:52;98512.84;;;5.23;59.90
71795;BME280;59641;45.188;5.712;2022-12-10T14:59:23;98515.91;;;5.20;59.82
71795;BME280;59641;45.188;5.712;2022-12-10T15:01:54;98510.19;;;5.16;59.81
71795;BME280;59641;45.188;5.712;2022-12-10T15:04:22;98518.97;;;5.17;60.49
71795;BME280;59641;45.188;5.712;2022-12-10T15:06:50;98521.63;;;5.17;60.36
71795;BME280;59641;45.188;5.712;2022-12-10T15:09:19;98513.25;;;5.20;60.46
71795;BME280;59641;45.188;5.712;2022-12-10T15:11:54;98520.00;;;5.22;60.46